sensor_id;sensor_type;location;lat;lon;timestamp;temperature;humidity
10660;DHT22;5378;53.206;13.316;2023-12-20T00:01:09;8.80;99.90
10660;DHT22;5378;53.206;13.316;2023-12-20T00:03:57;8.70;99.90
10660;DHT22;5378;53.206;13.316;2023-12-20T00:06:44;8.70;99.90
10660;DHT22;5378;53.206;13.316;2023-12-20T00:09:31;8.60;99.90
10660;DHT22;5378;53.206;13.316;2023-12-20T00:12:18;8.60;99.90
10660;DHT22;5378;53.206;13.316;2023-12-20T00:15:05;8.50;99.90
10660;DHT22;5378;53.206;13.316;2023-12-20T00:17:54;8.40;99.90
10660;DHT22;5378;53.206;13.316;2023-12-20T00:20:42;8.50;99.90
10660;DHT22;5378;53.206;13.316;2023-12-20T00:23:29;8.50;99.90
10660;DHT22;5378;53.206;13.316;2023-12-20T00:26:16;8.40;99.90
10660;DHT22;5378;53.206;13.316;2023-12-20T00:29:03;8.40;99.90
10660;DHT22;5378;53.206;13.316;2023-12-20T00:31:50;8.40;99.90
10660;DHT22;5378;53.206;13.316;2023-12-20T00:34:39;8.40;99.90
10660;DHT22;5378;53.206;13.316;2023-12-20T00:37:25;8.30;99.90
10660;DHT22;5378;53.206;13.316;2023-12-20T00:40:13;8.20;99.90
10660;DHT22;5378;53.206;13.316;2023-12-20T00:43:00;8.10;99.90
10660;DHT22;5378;53.206;13.316;2023-12-20T00:45:47;8.00;99.90
10660;DHT22;5378;53.206;13.316;2023-12-20T00:48:34;8.00;99.90
10660;DHT22;5378;53.206;13.316;2023-12-20T00:51:23;8.00;99.90
10660;DHT22;5378;53.206;13.316;2023-12-20T00:54:10;8.00;99.90
10660;DHT22;5378;53.206;13.316;2023-12-20T00:56:58;7.90;99.90
10660;DHT22;5378;53.206;13.316;2023-12-20T00:59:45;7.90;99.90
10660;DHT22;5378;53.206;13.316;2023-12-20T01:02:32;7.90;99.90
10660;DHT22;5378;53.206;13.316;2023-12-20T01:05:19;7.80;99.90
10660;DHT22;5378;53.206;13.316;2023-12-20T01:08:10;7.70;99.90
10660;DHT22;5378;53.206;13.316;2023-12-20T01:10:57;7.70;99.90
10660;DHT22;5378;53.206;13.316;2023-12-20T01:13:44;7.70;99.90
10660;DHT22;5378;53.206;13.316;2023-12-20T01:16:31;7.70;99.90
10660;DHT22;5378;53.206;13.316;2023-12-20T01:19:18;7.70;99.90
10660;DHT22;5378;53.206;13.316;2023-12-20T01:22:05;7.80;99.90
10660;DHT22;5378;53.206;13.316;2023-12-20T01:24:53;7.80;99.90
10660;DHT22;5378;53.206;13.316;2023-12-20T01:27:40;7.70;99.90
10660;DHT22;5378;53.206;13.316;2023-12-20T01:30:27;7.70;99.90
10660;DHT22;5378;53.206;13.316;2023-12-20T01:33:15;7.60;99.90
10660;DHT22;5378;53.206;13.316;2023-12-20T01:36:02;7.70;99.90
10660;DHT22;5378;53.206;13.316;2023-12-20T01:38:49;7.60;99.90
10660;DHT22;5378;53.206;13.316;2023-12-20T01:41:38;7.60;99.90
10660;DHT22;5378;53.206;13.316;2023-12-20T01:44:25;7.70;99.90
10660;DHT22;5378;53.206;13.316;2023-12-20T01:47:12;7.70;99.90
10660;DHT22;5378;53.206;13.316;2023-12-20T01:50:01;7.60;99.90
10660;DHT22;5378;53.206;13.316;2023-12-20T01:52:50;7.60;99.90
10660;DHT22;5378;53.206;13.316;2023-12-20T01:55:39;7.50;99.90
10660;DHT22;5378;53.206;13.316;2023-12-20T01:58:29;7.60;99.90
10660;DHT22;5378;53.206;13.316;2023-12-20T02:01:16;7.60;99.90
10660;DHT22;5378;53.206;13.316;2023-12-20T02:04:04;7.60;99.90
10660;DHT22;5378;53.206;13.316;2023-12-20T02:06:52;7.60;99.90
10660;DHT22;5378;53.206;13.316;2023-12-20T02:09:40;7.70;99.90
10660;DHT22;5378;53.206;13.316;2023-12-20T02:12:27;7.70;99.90
10660;DHT22;5378;53.206;13.316;2023-12-20T02:15:16;7.70;99.90
10660;DHT22;5378;53.206;13.316;2023-12-20T02:18:04;7.80;99.90
10660;DHT22;5378;53.206;13.316;2023-12-20T02:20:51;7.80;99.90
10660;DHT22;5378;53.206;13.316;2023-12-20T02:23:40;7.80;99.90
10660;DHT22;5378;53.206;13.316;2023-12-20T02:26:27;7.90;99.90
10660;DHT22;5378;53.206;13.316;2023-12-20T02:29:14;7.90;99.90
10660;DHT22;5378;53.206;13.316;2023-12-20T02:32:02;7.80;99.90
10660;DHT22;5378;53.206;13.316;2023-12-20T02:34:50;7.80;99.90
10660;DHT22;5378;53.206;13.316;2023-12-20T02:37:37;7.70;99.90
10660;DHT22;5378;53.206;13.316;2023-12-20T02:40:25;7.60;99.90
10660;DHT22;5378;53.206;13.316;2023-12-20T02:43:12;7.50;99.90
10660;DHT22;5378;53.206;13.316;2023-12-20T02:45:59;7.40;99.90
10660;DHT22;5378;53.206;13.316;2023-12-20T02:48:46;7.20;99.90
10660;DHT22;5378;53.206;13.316;2023-12-20T02:51:34;7.10;99.90
10660;DHT22;5378;53.206;13.316;2023-12-20T02:54:24;7.00;99.90
10660;DHT22;5378;53.206;13.316;2023-12-20T02:57:12;7.00;99.90
10660;DHT22;5378;53.206;13.316;2023-12-20T02:59:59;6.90;99.90
10660;DHT22;5378;53.206;13.316;2023-12-20T03:02:47;6.90;99.90
10660;DHT22;5378;53.206;13.316;2023-12-20T03:05:34;6.80;99.90
10660;DHT22;5378;53.206;13.316;2023-12-20T03:08:21;6.90;99.90
10660;DHT22;5378;53.206;13.316;2023-12-20T03:11:08;7.00;99.90
10660;DHT22;5378;53.206;13.316;2023-12-20T03:13:57;7.00;99.90
10660;DHT22;5378;53.206;13.316;2023-12-20T03:16:47;6.90;99.90
10660;DHT22;5378;53.206;13.316;2023-12-20T03:19:34;6.90;99.90
10660;DHT22;5378;53.206;13.316;2023-12-20T03:22:21;6.90;99.90
10660;DHT22;5378;53.206;13.316;2023-12-20T03:25:08;6.80;99.90
10660;DHT22;5378;53.206;13.316;2023-12-20T03:27:55;6.70;99.90
10660;DHT22;5378;53.206;13.316;2023-12-20T03:30:43;6.70;99.90
10660;DHT22;5378;53.206;13.316;2023-12-20T03:33:31;6.70;99.90
10660;DHT22;5378;53.206;13.316;2023-12-20T03:36:18;6.50;99.90
10660;DHT22;5378;53.206;13.316;2023-12-20T03:39:05;6.60;99.90
10660;DHT22;5378;53.206;13.316;2023-12-20T03:41:52;6.60;99.90
10660;DHT22;5378;53.206;13.316;2023-12-20T03:44:40;6.70;99.90
10660;DHT22;5378;53.206;13.316;2023-12-20T03:47:28;6.70;99.90
10660;DHT22;5378;53.206;13.316;2023-12-20T03:50:15;6.70;99.90
10660;DHT22;5378;53.206;13.316;2023-12-20T03:53:03;6.70;99.90
10660;DHT22;5378;53.206;13.316;2023-12-20T03:55:50;6.50;99.90
10660;DHT22;5378;53.206;13.316;2023-12-20T03:58:37;6.50;99.90
10660;DHT22;5378;53.206;13.316;2023-12-20T04:01:24;6.40;99.90
10660;DHT22;5378;53.206;13.316;2023-12-20T04:04:13;6.40;99.90
10660;DHT22;5378;53.206;13.316;2023-12-20T04:07:01;6.30;99.90
10660;DHT22;5378;53.206;13.316;2023-12-20T04:09:48;6.40;99.90
10660;DHT22;5378;53.206;13.316;2023-12-20T04:12:35;6.50;99.90
10660;DHT22;5378;53.206;13.316;2023-12-20T04:15:22;6.50;99.90
10660;DHT22;5378;53.206;13.316;2023-12-20T04:18:09;6.50;99.90
10660;DHT22;5378;53.206;13.316;2023-12-20T04:20:58;6.70;99.90
10660;DHT22;5378;53.206;13.316;2023-12-20T04:23:45;6.60;99.90
10660;DHT22;5378;53.206;13.316;2023-12-20T04:26:32;6.50;99.90
10660;DHT22;5378;53.206;13.316;2023-12-20T04:29:19;6.40;99.90
10660;DHT22;5378;53.206;13.316;2023-12-20T04:32:06;6.40;99.90
10660;DHT22;5378;53.206;13.316;2023-12-20T04:34:53;6.30;99.90
10660;DHT22;5378;53.206;13.316;2023-12-20T04:37:42;6.30;99.90
10660;DHT22;5378;53.206;13.316;2023-12-20T04:40:29;6.30;99.90
10660;DHT22;5378;53.206;13.316;2023-12-20T04:43:16;6.40;99.90
10660;DHT22;5378;53.206;13.316;2023-12-20T04:46:03;6.40;99.90
10660;DHT22;5378;53.206;13.316;2023-12-20T04:48:51;6.40;99.90
10660;DHT22;5378;53.206;13.316;2023-12-20T04:51:38;6.20;99.90
10660;DHT22;5378;53.206;13.316;2023-12-20T04:54:27;6.10;99.90
10660;DHT22;5378;53.206;13.316;2023-12-20T04:57:14;6.00;99.90
10660;DHT22;5378;53.206;13.316;2023-12-20T05:00:01;6.00;99.90
10660;DHT22;5378;53.206;13.316;2023-12-20T05:02:49;6.10;99.90
10660;DHT22;5378;53.206;13.316;2023-12-20T05:05:36;6.10;99.90
10660;DHT22;5378;53.206;13.316;2023-12-20T05:08:24;6.30;99.90
10660;DHT22;5378;53.206;13.316;2023-12-20T05:11:12;6.30;99.90
10660;DHT22;5378;53.206;13.316;2023-12-20T05:14:01;6.30;99.90
10660;DHT22;5378;53.206;13.316;2023-12-20T05:16:48;6.40;99.90
10660;DHT22;5378;53.206;13.316;2023-12-20T05:19:35;6.40;99.90
10660;DHT22;5378;53.206;13.316;2023-12-20T05:22:22;6.50;99.90
10660;DHT22;5378;53.206;13.316;2023-12-20T05:25:09;6.50;99.90
10660;DHT22;5378;53.206;13.316;2023-12-20T05:27:57;6.40;99.90
10660;DHT22;5378;53.206;13.316;2023-12-20T05:30:44;6.40;99.90
10660;DHT22;5378;53.206;13.316;2023-12-20T05:33:31;6.50;99.90
10660;DHT22;5378;53.206;13.316;2023-12-20T05:36:19;6.50;99.90
10660;DHT22;5378;53.206;13.316;2023-12-20T05:39:06;6.50;99.90
10660;DHT22;5378;53.206;13.316;2023-12-20T05:41:54;6.50;99.90
10660;DHT22;5378;53.206;13.316;2023-12-20T05:44:42;6.50;99.90
10660;DHT22;5378;53.206;13.316;2023-12-20T05:47:29;6.50;99.90
10660;DHT22;5378;53.206;13.316;2023-12-20T05:50:16;6.50;99.90
10660;DHT22;5378;53.206;13.316;2023-12-20T05:53:03;6.40;99.90
10660;DHT22;5378;53.206;13.316;2023-12-20T05:55:51;6.50;99.90
10660;DHT22;5378;53.206;13.316;2023-12-20T05:58:38;6.50;99.90
10660;DHT22;5378;53.206;13.316;2023-12-20T06:01:27;6.50;99.90
10660;DHT22;5378;53.206;13.316;2023-12-20T06:04:14;6.60;99.90
10660;DHT22;5378;53.206;13.316;2023-12-20T06:07:02;6.60;99.90
10660;DHT22;5378;53.206;13.316;2023-12-20T06:09:49;6.50;99.90
10660;DHT22;5378;53.206;13.316;2023-12-20T06:12:36;6.70;99.90
10660;DHT22;5378;53.206;13.316;2023-12-20T06:15:24;6.70;99.90
10660;DHT22;5378;53.206;13.316;2023-12-20T06:18:13;6.70;99.90
10660;DHT22;5378;53.206;13.316;2023-12-20T06:21:00;6.70;99.90
10660;DHT22;5378;53.206;13.316;2023-12-20T06:23:48;6.80;99.90
10660;DHT22;5378;53.206;13.316;2023-12-20T06:26:35;6.80;99.90
10660;DHT22;5378;53.206;13.316;2023-12-20T06:29:22;6.70;99.90
10660;DHT22;5378;53.206;13.316;2023-12-20T06:32:09;6.80;99.90
10660;DHT22;5378;53.206;13.316;2023-12-20T06:34:58;6.80;99.90
10660;DHT22;5378;53.206;13.316;2023-12-20T06:37:45;6.80;99.90
10660;DHT22;5378;53.206;13.316;2023-12-20T06:40:32;6.70;99.90
10660;DHT22;5378;53.206;13.316;2023-12-20T06:43:19;6.80;99.90
10660;DHT22;5378;53.206;13.316;2023-12-20T06:46:08;6.80;99.90
10660;DHT22;5378;53.206;13.316;2023-12-20T06:48:56;6.80;99.90
10660;DHT22;5378;53.206;13.316;2023-12-20T06:51:44;6.80;99.90
10660;DHT22;5378;53.206;13.316;2023-12-20T06:54:32;6.80;99.90
10660;DHT22;5378;53.206;13.316;2023-12-20T06:57:20;6.80;99.90
10660;DHT22;5378;53.206;13.316;2023-12-20T07:00:08;6.80;99.90
10660;DHT22;5378;53.206;13.316;2023-12-20T07:02:55;6.80;99.90
10660;DHT22;5378;53.206;13.316;2023-12-20T07:05:42;6.70;99.90
10660;DHT22;5378;53.206;13.316;2023-12-20T07:08:31;6.80;99.90
10660;DHT22;5378;53.206;13.316;2023-12-20T07:11:17;6.80;99.90
10660;DHT22;5378;53.206;13.316;2023-12-20T07:14:04;6.90;99.90
10660;DHT22;5378;53.206;13.316;2023-12-20T07:16:52;6.90;99.90
10660;DHT22;5378;53.206;13.316;2023-12-20T07:19:39;6.80;99.90
10660;DHT22;5378;53.206;13.316;2023-12-20T07:22:26;6.90;99.90
10660;DHT22;5378;53.206;13.316;2023-12-20T07:25:15;7.00;99.90
10660;DHT22;5378;53.206;13.316;2023-12-20T07:28:02;6.90;99.90
10660;DHT22;5378;53.206;13.316;2023-12-20T07:30:49;6.80;99.90
10660;DHT22;5378;53.206;13.316;2023-12-20T07:33:36;6.80;99.90
10660;DHT22;5378;53.206;13.316;2023-12-20T07:36:24;6.80;99.90
10660;DHT22;5378;53.206;13.316;2023-12-20T07:39:11;6.80;99.90
10660;DHT22;5378;53.206;13.316;2023-12-20T07:41:59;6.90;99.90
10660;DHT22;5378;53.206;13.316;2023-12-20T07:44:46;6.90;99.90
10660;DHT22;5378;53.206;13.316;2023-12-20T07:47:33;6.90;99.90
10660;DHT22;5378;53.206;13.316;2023-12-20T07:50:20;6.90;99.90
10660;DHT22;5378;53.206;13.316;2023-12-20T07:53:07;6.90;99.90
10660;DHT22;5378;53.206;13.316;2023-12-20T07:55:55;6.90;99.90
10660;DHT22;5378;53.206;13.316;2023-12-20T07:58:43;7.00;99.90
10660;DHT22;5378;53.206;13.316;2023-12-20T08:01:34;6.90;99.90
10660;DHT22;5378;53.206;13.316;2023-12-20T08:04:21;6.90;99.90
10660;DHT22;5378;53.206;13.316;2023-12-20T08:07:09;6.90;99.90
10660;DHT22;5378;53.206;13.316;2023-12-20T08:09:56;6.90;99.90
10660;DHT22;5378;53.206;13.316;2023-12-20T08:12:43;6.90;99.90
10660;DHT22;5378;53.206;13.316;2023-12-20T08:15:31;6.80;99.90
10660;DHT22;5378;53.206;13.316;2023-12-20T08:18:19;6.80;99.90
10660;DHT22;5378;53.206;13.316;2023-12-20T08:21:06;6.80;99.90
10660;DHT22;5378;53.206;13.316;2023-12-20T08:23:54;6.90;99.90
10660;DHT22;5378;53.206;13.316;2023-12-20T08:26:41;7.00;99.90
10660;DHT22;5378;53.206;13.316;2023-12-20T08:29:28;6.90;99.90
10660;DHT22;5378;53.206;13.316;2023-12-20T08:32:17;6.90;99.90
10660;DHT22;5378;53.206;13.316;2023-12-20T08:35:04;7.00;99.90
10660;DHT22;5378;53.206;13.316;2023-12-20T08:37:52;7.00;99.90
10660;DHT22;5378;53.206;13.316;2023-12-20T08:40:39;7.10;99.90
10660;DHT22;5378;53.206;13.316;2023-12-20T08:43:26;7.00;99.90
10660;DHT22;5378;53.206;13.316;2023-12-20T08:46:14;7.00;99.90
10660;DHT22;5378;53.206;13.316;2023-12-20T08:49:02;7.00;99.90
10660;DHT22;5378;53.206;13.316;2023-12-20T08:51:50;7.10;99.90
10660;DHT22;5378;53.206;13.316;2023-12-20T08:54:37;7.10;99.90
10660;DHT22;5378;53.206;13.316;2023-12-20T08:57:24;7.20;99.90
10660;DHT22;5378;53.206;13.316;2023-12-20T09:00:12;7.20;99.90
10660;DHT22;5378;53.206;13.316;2023-12-20T09:02:59;7.10;99.90
10660;DHT22;5378;53.206;13.316;2023-12-20T09:05:48;7.10;99.90
10660;DHT22;5378;53.206;13.316;2023-12-20T09:08:35;7.20;99.90
10660;DHT22;5378;53.206;13.316;2023-12-20T09:11:22;7.20;99.90
10660;DHT22;5378;53.206;13.316;2023-12-20T09:14:09;7.20;99.90
10660;DHT22;5378;53.206;13.316;2023-12-20T09:16:57;7.30;99.90
10660;DHT22;5378;53.206;13.316;2023-12-20T09:19:44;7.20;99.90
10660;DHT22;5378;53.206;13.316;2023-12-20T09:22:33;7.20;99.90
10660;DHT22;5378;53.206;13.316;2023-12-20T09:25:20;7.10;99.90
10660;DHT22;5378;53.206;13.316;2023-12-20T09:28:09;7.20;99.90
10660;DHT22;5378;53.206;13.316;2023-12-20T09:30:56;7.30;99.90
10660;DHT22;5378;53.206;13.316;2023-12-20T09:33:43;7.30;99.90
10660;DHT22;5378;53.206;13.316;2023-12-20T09:36:30;7.30;99.90
10660;DHT22;5378;53.206;13.316;2023-12-20T09:39:23;7.40;99.90
10660;DHT22;5378;53.206;13.316;2023-12-20T09:42:12;7.40;99.90
10660;DHT22;5378;53.206;13.316;2023-12-20T09:45:02;7.40;99.90
10660;DHT22;5378;53.206;13.316;2023-12-20T09:47:50;7.50;99.90
10660;DHT22;5378;53.206;13.316;2023-12-20T09:50:38;7.50;99.90
10660;DHT22;5378;53.206;13.316;2023-12-20T09:53:25;7.50;99.90
10660;DHT22;5378;53.206;13.316;2023-12-20T09:56:16;7.60;99.90
10660;DHT22;5378;53.206;13.316;2023-12-20T09:59:03;7.60;99.90
10660;DHT22;5378;53.206;13.316;2023-12-20T10:01:51;7.60;99.90
10660;DHT22;5378;53.206;13.316;2023-12-20T10:04:46;7.70;99.90
10660;DHT22;5378;53.206;13.316;2023-12-20T10:07:34;7.80;99.90
10660;DHT22;5378;53.206;13.316;2023-12-20T10:10:22;7.90;99.90
10660;DHT22;5378;53.206;13.316;2023-12-20T10:13:13;7.90;99.90
10660;DHT22;5378;53.206;13.316;2023-12-20T10:16:00;8.00;99.90
10660;DHT22;5378;53.206;13.316;2023-12-20T10:18:48;8.00;99.90
10660;DHT22;5378;53.206;13.316;2023-12-20T10:21:35;8.00;99.90
10660;DHT22;5378;53.206;13.316;2023-12-20T10:24:23;7.90;99.90
10660;DHT22;5378;53.206;13.316;2023-12-20T10:27:10;7.80;99.90
10660;DHT22;5378;53.206;13.316;2023-12-20T10:30:00;7.70;99.90
10660;DHT22;5378;53.206;13.316;2023-12-20T10:32:47;7.80;99.90
10660;DHT22;5378;53.206;13.316;2023-12-20T10:35:34;7.70;99.90
10660;DHT22;5378;53.206;13.316;2023-12-20T10:38:21;7.60;99.90
10660;DHT22;5378;53.206;13.316;2023-12-20T10:41:10;7.60;99.90
10660;DHT22;5378;53.206;13.316;2023-12-20T10:43:59;7.50;99.90
10660;DHT22;5378;53.206;13.316;2023-12-20T10:46:48;7.60;99.90
10660;DHT22;5378;53.206;13.316;2023-12-20T10:49:37;7.70;99.90
10660;DHT22;5378;53.206;13.316;2023-12-20T10:52:27;7.80;99.90
10660;DHT22;5378;53.206;13.316;2023-12-20T10:55:16;7.70;99.90
10660;DHT22;5378;53.206;13.316;2023-12-20T10:58:07;7.80;99.90
10660;DHT22;5378;53.206;13.316;2023-12-20T11:00:59;7.80;99.90
10660;DHT22;5378;53.206;13.316;2023-12-20T11:03:52;7.70;99.90
10660;DHT22;5378;53.206;13.316;2023-12-20T11:06:43;7.80;99.90
10660;DHT22;5378;53.206;13.316;2023-12-20T11:09:35;7.70;99.90
10660;DHT22;5378;53.206;13.316;2023-12-20T11:12:32;7.70;99.90
10660;DHT22;5378;53.206;13.316;2023-12-20T11:15:21;7.90;99.90
10660;DHT22;5378;53.206;13.316;2023-12-20T11:18:09;8.00;99.90
10660;DHT22;5378;53.206;13.316;2023-12-20T11:21:00;8.20;99.90
10660;DHT22;5378;53.206;13.316;2023-12-20T11:23:48;8.30;99.90
10660;DHT22;5378;53.206;13.316;2023-12-20T11:26:35;8.30;99.90
10660;DHT22;5378;53.206;13.316;2023-12-20T11:29:29;8.30;99.90
10660;DHT22;5378;53.206;13.316;2023-12-20T11:32:29;8.40;99.90
10660;DHT22;5378;53.206;13.316;2023-12-20T11:35:18;8.00;99.90
10660;DHT22;5378;53.206;13.316;2023-12-20T11:38:08;8.00;99.90
10660;DHT22;5378;53.206;13.316;2023-12-20T11:40:56;7.80;99.90
10660;DHT22;5378;53.206;13.316;2023-12-20T11:43:44;7.70;99.90
10660;DHT22;5378;53.206;13.316;2023-12-20T11:46:32;7.60;99.90
10660;DHT22;5378;53.206;13.316;2023-12-20T11:49:23;7.60;99.90
10660;DHT22;5378;53.206;13.316;2023-12-20T11:52:12;7.60;99.90
10660;DHT22;5378;53.206;13.316;2023-12-20T11:55:00;7.50;99.90
10660;DHT22;5378;53.206;13.316;2023-12-20T11:57:47;7.60;99.90
10660;DHT22;5378;53.206;13.316;2023-12-20T12:00:35;7.60;99.90
10660;DHT22;5378;53.206;13.316;2023-12-20T12:03:22;7.40;99.90
10660;DHT22;5378;53.206;13.316;2023-12-20T12:06:10;7.30;99.90
10660;DHT22;5378;53.206;13.316;2023-12-20T12:08:57;7.40;99.90
10660;DHT22;5378;53.206;13.316;2023-12-20T12:11:46;7.40;99.90
10660;DHT22;5378;53.206;13.316;2023-12-20T12:14:33;7.40;99.90
10660;DHT22;5378;53.206;13.316;2023-12-20T12:17:21;7.50;99.90
10660;DHT22;5378;53.206;13.316;2023-12-20T12:20:09;7.40;99.90
10660;DHT22;5378;53.206;13.316;2023-12-20T12:22:59;7.40;99.90
10660;DHT22;5378;53.206;13.316;2023-12-20T12:25:47;7.30;99.90
10660;DHT22;5378;53.206;13.316;2023-12-20T12:28:36;7.20;99.90
10660;DHT22;5378;53.206;13.316;2023-12-20T12:31:23;7.30;99.90
10660;DHT22;5378;53.206;13.316;2023-12-20T12:34:13;7.30;99.90
10660;DHT22;5378;53.206;13.316;2023-12-20T12:37:03;7.30;99.90
10660;DHT22;5378;53.206;13.316;2023-12-20T12:39:50;7.30;99.90
10660;DHT22;5378;53.206;13.316;2023-12-20T12:42:40;7.30;99.90
10660;DHT22;5378;53.206;13.316;2023-12-20T12:45:30;7.20;99.90
10660;DHT22;5378;53.206;13.316;2023-12-20T12:48:17;7.20;99.90
10660;DHT22;5378;53.206;13.316;2023-12-20T12:51:04;7.10;99.90
10660;DHT22;5378;53.206;13.316;2023-12-20T12:53:53;7.20;99.90
10660;DHT22;5378;53.206;13.316;2023-12-20T12:56:40;7.20;99.90
10660;DHT22;5378;53.206;13.316;2023-12-20T12:59:27;7.10;99.90
10660;DHT22;5378;53.206;13.316;2023-12-20T13:02:16;7.00;99.90
10660;DHT22;5378;53.206;13.316;2023-12-20T13:05:05;7.00;99.90
10660;DHT22;5378;53.206;13.316;2023-12-20T13:07:53;6.70;99.90
10660;DHT22;5378;53.206;13.316;2023-12-20T13:10:40;6.70;99.90
10660;DHT22;5378;53.206;13.316;2023-12-20T13:13:27;6.70;99.90
10660;DHT22;5378;53.206;13.316;2023-12-20T13:16:15;6.80;99.90
10660;DHT22;5378;53.206;13.316;2023-12-20T13:19:03;6.90;99.90
10660;DHT22;5378;53.206;13.316;2023-12-20T13:21:51;6.90;99.90
10660;DHT22;5378;53.206;13.316;2023-12-20T13:24:38;6.90;99.90
10660;DHT22;5378;53.206;13.316;2023-12-20T13:27:26;6.90;99.90
10660;DHT22;5378;53.206;13.316;2023-12-20T13:30:15;6.80;99.90
10660;DHT22;5378;53.206;13.316;2023-12-20T13:33:02;6.90;99.90
10660;DHT22;5378;53.206;13.316;2023-12-20T13:35:51;6.80;99.90
10660;DHT22;5378;53.206;13.316;2023-12-20T13:38:38;6.70;99.90
10660;DHT22;5378;53.206;13.316;2023-12-20T13:41:26;6.50;99.90
10660;DHT22;5378;53.206;13.316;2023-12-20T13:44:13;6.40;99.90
10660;DHT22;5378;53.206;13.316;2023-12-20T13:47:01;6.40;99.90
10660;DHT22;5378;53.206;13.316;2023-12-20T13:49:49;6.50;99.90
10660;DHT22;5378;53.206;13.316;2023-12-20T13:52:38;6.60;99.90
10660;DHT22;5378;53.206;13.316;2023-12-20T13:55:25;6.70;99.90
10660;DHT22;5378;53.206;13.316;2023-12-20T13:58:13;6.70;99.90
10660;DHT22;5378;53.206;13.316;2023-12-20T14:01:00;6.70;99.90
10660;DHT22;5378;53.206;13.316;2023-12-20T14:03:47;6.40;99.90
10660;DHT22;5378;53.206;13.316;2023-12-20T14:06:35;6.30;99.90
10660;DHT22;5378;53.206;13.316;2023-12-20T14:09:24;6.30;99.90
10660;DHT22;5378;53.206;13.316;2023-12-20T14:12:11;6.30;99.90
10660;DHT22;5378;53.206;13.316;2023-12-20T14:14:59;6.30;99.90
10660;DHT22;5378;53.206;13.316;2023-12-20T14:17:45;6.40;99.90
10660;DHT22;5378;53.206;13.316;2023-12-20T14:20:33;6.30;99.90
10660;DHT22;5378;53.206;13.316;2023-12-20T14:23:21;6.30;99.90
10660;DHT22;5378;53.206;13.316;2023-12-20T14:26:09;6.10;99.90
10660;DHT22;5378;53.206;13.316;2023-12-20T14:29:00;6.00;99.90
10660;DHT22;5378;53.206;13.316;2023-12-20T14:31:47;6.00;99.90
10660;DHT22;5378;53.206;13.316;2023-12-20T14:34:35;5.80;99.90
10660;DHT22;5378;53.206;13.316;2023-12-20T14:37:24;5.70;99.90
10660;DHT22;5378;53.206;13.316;2023-12-20T14:40:11;5.70;99.90
10660;DHT22;5378;53.206;13.316;2023-12-20T14:43:04;5.60;99.90
10660;DHT22;5378;53.206;13.316;2023-12-20T14:45:52;5.70;99.90
10660;DHT22;5378;53.206;13.316;2023-12-20T14:48:39;5.80;99.90
10660;DHT22;5378;53.206;13.316;2023-12-20T14:51:26;5.80;99.90
10660;DHT22;5378;53.206;13.316;2023-12-20T14:54:13;5.80;99.90
10660;DHT22;5378;53.206;13.316;2023-12-20T14:57:00;5.80;99.90
10660;DHT22;5378;53.206;13.316;2023-12-20T14:59:49;5.90;99.90
10660;DHT22;5378;53.206;13.316;2023-12-20T15:02:36;6.00;99.90
10660;DHT22;5378;53.206;13.316;2023-12-20T15:05:23;6.10;99.90
10660;DHT22;5378;53.206;13.316;2023-12-20T15:08:11;6.20;99.90
10660;DHT22;5378;53.206;13.316;2023-12-20T15:10:58;6.20;99.90
10660;DHT22;5378;53.206;13.316;2023-12-20T15:13:45;6.30;99.90
10660;DHT22;5378;53.206;13.316;2023-12-20T15:16:36;6.40;99.90
10660;DHT22;5378;53.206;13.316;2023-12-20T15:19:24;6.40;99.90
10660;DHT22;5378;53.206;13.316;2023-12-20T15:22:12;6.40;99.90
10660;DHT22;5378;53.206;13.316;2023-12-20T15:24:59;6.40;99.90
10660;DHT22;5378;53.206;13.316;2023-12-20T15:27:47;6.20;99.90
10660;DHT22;5378;53.206;13.316;2023-12-20T15:30:39;6.20;99.90
10660;DHT22;5378;53.206;13.316;2023-12-20T15:33:28;6.10;99.90
10660;DHT22;5378;53.206;13.316;2023-12-20T15:36:15;5.90;99.90
10660;DHT22;5378;53.206;13.316;2023-12-20T15:39:02;5.70;99.90
10660;DHT22;5378;53.206;13.316;2023-12-20T15:41:49;5.70;99.90
10660;DHT22;5378;53.206;13.316;2023-12-20T15:44:37;5.80;99.90
10660;DHT22;5378;53.206;13.316;2023-12-20T15:47:25;6.00;99.90
10660;DHT22;5378;53.206;13.316;2023-12-20T15:50:13;6.00;99.90
10660;DHT22;5378;53.206;13.316;2023-12-20T15:53:00;6.10;99.90
10660;DHT22;5378;53.206;13.316;2023-12-20T15:55:49;6.00;99.90
10660;DHT22;5378;53.206;13.316;2023-12-20T15:58:37;5.80;99.90
10660;DHT22;5378;53.206;13.316;2023-12-20T16:01:24;5.60;99.90
10660;DHT22;5378;53.206;13.316;2023-12-20T16:04:11;5.30;99.90
10660;DHT22;5378;53.206;13.316;2023-12-20T16:07:00;5.30;99.90
10660;DHT22;5378;53.206;13.316;2023-12-20T16:09:47;5.30;99.90
10660;DHT22;5378;53.206;13.316;2023-12-20T16:12:34;5.30;99.90
10660;DHT22;5378;53.206;13.316;2023-12-20T16:15:21;5.30;99.90
10660;DHT22;5378;53.206;13.316;2023-12-20T16:18:08;5.40;99.90
10660;DHT22;5378;53.206;13.316;2023-12-20T16:20:57;5.50;99.90
10660;DHT22;5378;53.206;13.316;2023-12-20T16:23:46;5.50;99.90
10660;DHT22;5378;53.206;13.316;2023-12-20T16:26:33;5.30;99.90
10660;DHT22;5378;53.206;13.316;2023-12-20T16:29:20;5.30;99.90
10660;DHT22;5378;53.206;13.316;2023-12-20T16:32:07;5.20;99.90
10660;DHT22;5378;53.206;13.316;2023-12-20T16:34:54;5.20;99.90
10660;DHT22;5378;53.206;13.316;2023-12-20T16:37:43;5.50;99.90
10660;DHT22;5378;53.206;13.316;2023-12-20T16:40:31;5.60;99.90
10660;DHT22;5378;53.206;13.316;2023-12-20T16:43:18;5.70;99.90
10660;DHT22;5378;53.206;13.316;2023-12-20T16:46:05;5.90;99.90
10660;DHT22;5378;53.206;13.316;2023-12-20T16:48:53;5.90;99.90
10660;DHT22;5378;53.206;13.316;2023-12-20T16:51:40;5.90;99.90
10660;DHT22;5378;53.206;13.316;2023-12-20T16:54:28;5.90;99.90
10660;DHT22;5378;53.206;13.316;2023-12-20T16:57:18;6.00;99.90
10660;DHT22;5378;53.206;13.316;2023-12-20T17:00:07;6.00;99.90
10660;DHT22;5378;53.206;13.316;2023-12-20T17:02:54;6.00;99.90
10660;DHT22;5378;53.206;13.316;2023-12-20T17:05:41;6.00;99.90
10660;DHT22;5378;53.206;13.316;2023-12-20T17:08:29;6.00;99.90
10660;DHT22;5378;53.206;13.316;2023-12-20T17:11:16;6.10;99.90
10660;DHT22;5378;53.206;13.316;2023-12-20T17:14:05;6.00;99.90
10660;DHT22;5378;53.206;13.316;2023-12-20T17:16:55;5.90;99.90
10660;DHT22;5378;53.206;13.316;2023-12-20T17:19:42;5.80;99.90
10660;DHT22;5378;53.206;13.316;2023-12-20T17:22:29;5.90;99.90
10660;DHT22;5378;53.206;13.316;2023-12-20T17:25:16;6.00;99.90
10660;DHT22;5378;53.206;13.316;2023-12-20T17:28:04;6.00;99.90
10660;DHT22;5378;53.206;13.316;2023-12-20T17:30:52;6.10;99.90
10660;DHT22;5378;53.206;13.316;2023-12-20T17:33:40;6.10;99.90
10660;DHT22;5378;53.206;13.316;2023-12-20T17:36:27;6.10;99.90
10660;DHT22;5378;53.206;13.316;2023-12-20T17:39:14;6.10;99.90
10660;DHT22;5378;53.206;13.316;2023-12-20T17:42:02;6.10;99.90
10660;DHT22;5378;53.206;13.316;2023-12-20T17:44:49;6.10;99.90
10660;DHT22;5378;53.206;13.316;2023-12-20T17:47:37;6.10;99.90
10660;DHT22;5378;53.206;13.316;2023-12-20T17:50:24;6.00;99.90
10660;DHT22;5378;53.206;13.316;2023-12-20T17:53:11;6.00;99.90
10660;DHT22;5378;53.206;13.316;2023-12-20T17:55:58;6.10;99.90